Warning: Javascript must be enabled to use all the features on this page!


Page Loading - Please Wait...

* We've detected you're using a mobile device. Find our Next Generation Station Page here.
Click to hideNews Bulletins

Peak Streamflow for the Nation

USGS 09304500 WHITE RIVER NEAR MEEKER, CO.

Rio Blanco County, Colorado
Hydrologic Unit Code 14050005
Latitude  40°02'01", Longitude 107°51'42" NAD27
Drainage area 760  square miles
Gage datum 6,300.00 feet above NGVD29
Output formats
Table
Graph
Tab-separated file
peakfq (watstore) format
Reselect output format
Water
Year
Date Gage
Height
(feet)
Stream-
flow
(cfs)
1901 1901-05-21 6.50 5,0007
1910 1910-06-01   3,0802
1911 1911-06-09 3.40 3,7002
1912 1912-06-09 4.60 4,8002
1913 1913-05-30 3.60 2,350
1914 1914-05-24 3.206 3,490
1915 1915-06-12 2.20 1,780
1916 1916-05-10 3.00 2,920
1917 1917-06-22 4.05 4,940
1918 1918-06-15 3.50 3,900
1919 1919-05-30 2.35 2,080
1920 1920-06-10 3.55 4,250
1921 1921-06-16 4.60 6,370
1922 1922-05-27 2.74 2,940
1923 1923-05-27 2.62 2,920
1924 1924-06-15 3.22 3,570
1925 1925-06-22 2.40 2,470
1926 1926-06-07 2.78 2,960
1927 1927-05-20 2.68 2,830
1928 1928-05-11 3.28 3,630
1929 1929-05-26 3.50 4,550
1930 1930-06-14 2.68 3,110
1931 1931-05-18 2.02 2,010
1932 1932-05-22 2.70 3,1402
1933 1933-06-13   3,5902
1934 1934-05-12 2.416 1,200
1935 1935-06-16 3.68 3,450
1936 1936-05-06 3.57 3,030
1937 1937-05-19 3.33 2,300
1938 1938-05-30 3.79 3,290
1939 1939-05-06 3.18 2,060
1940 1940-05-13 3.52 2,740
1941 1941-05-14 4.07 4,100
1942 1942-05-27 4.15 4,240
1943 1943-06-02 3.20 2,260
1944 1944-05-24 3.51 2,770
1945 1945-06-26 3.58 3,070
1946 1946-06-11 3.30 2,400
1947 1947-05-09 3.78 3,590
1948 1948-05-20 3.75 3,510
1949 1949-06-18 4.19 4,490
1950 1950-06-14 3.82 3,460
1951 1951-05-29 3.70 3,160
1952 1952-06-11 4.70 5,200
1953 1953-06-15 4.38 4,360
1954 1954-05-22 3.09 2,110
1955 1955-06-09 3.29 2,470
1956 1956-06-03 3.65 3,120
1957 1957-06-30 4.45 5,220
1958 1958-05-30 4.08 4,340
1959 1959-06-09 3.32 2,860
1960 1960-06-05 3.27 2,650
1961 1961-06-01 2.87 2,100
1962 1962-05-13 3.90 4,150
1963 1963-05-19 2.87 2,240
1964 1964-05-23 3.35 3,070
1965 1965-06-15 3.84 4,030
1966 1966-05-08 2.49 1,780
1967 1967-05-26 3.18 2,830
1968 1968-06-06 3.61 3,690
1969 1969-05-28 3.01 2,580
1970 1970-05-21 3.80 4,010
1971 1971-06-18 3.24 3,020
1972 1972-06-08 5.436 3,150
1973 1973-05-21 5.76 3,910
1974 1974-05-10 5.47 3,450
1975 1975-06-08 5.88 4,230
1976 1976-05-20 4.61 3,070
1977 1977-06-01 3.44 928
1978 1978-06-16 5.54 3,900
1979 1979-05-29 5.38 4,960
1980 1980-06-13 5.03 3,170
1981 1981-06-09 4.37 1,920
1982 1982-05-28 4.88 2,860
1983 1983-06-26 5.89 6,700
1984 1984-05-25 6.12 6,950
1985 1985-06-10 3.51 5,080
1986 1986-06-08 5.32 4,570
1987 1987-05-17 4.41 2,160
1988 1988-05-18 4.63 2,720
1989 1989-05-30 3.862 1,520
1990 1990-06-12 4.26 1,960
1991 1991-06-15 4.54 2,550
1992 1992-05-09 4.05 1,690
1993 1993-05-22 5.15 3,980
1994 1994-06-01 3.88 1,620
1995 1995-06-17 5.61 5,280
1996 1996-05-17 5.18 3,530
1997 1997-06-03 5.332 4,080
1998 1998-05-22 5.22 3,620
1999 1999-05-31 5.01 3,190
2000 2000-05-31 5.07 3,310
2001 2001-05-16 4.67 2,570
2002 2002-05-08 3.43 1,030
2003 2003-06-02 5.44 4,110
2004 2004-05-11 4.29 1,780
2005 2005-05-23 5.06 3,440
2006 2006-05-23 5.14 3,160
2007 2007-05-16 4.33 1,920
2008 2008-05-21 5.19 3,690
2009 2009-05-25 5.19 3,670
2010 2010-06-08 5.14 3,670
2011 2011-06-07 6.29 5,930
2012 2012-04-27 3.80 1,160
2013 2013-05-27 4.70 1,930
2014 2014-06-01 5.60 3,6502
2015 2015-06-04 4.88 2,680
2016 2016-06-06 4.82 2,580
2017 2017-06-11 4.91 2,490
2018 2018-05-11 4.37 1,880
2019 2019-06-21 5.85 4,790
2020 2020-06-02 4.67 2,230
2021 2021-06-05 3.82 1,120
?
  Peak Gage-Height Qualification Codes.
?
  Peak Streamflow Qualification Codes.